sensor_id;sensor_type;location;lat;lon;timestamp;temperature;humidity
10417;DHT22;62605;49.432;8.680;2022-10-17T00:00:41;18.20;99.90
10417;DHT22;62605;49.432;8.680;2022-10-17T00:03:10;18.10;99.90
10417;DHT22;62605;49.432;8.680;2022-10-17T00:05:39;17.90;99.90
10417;DHT22;62605;49.432;8.680;2022-10-17T00:08:07;17.80;99.90
10417;DHT22;62605;49.432;8.680;2022-10-17T00:10:34;17.70;99.90
10417;DHT22;62605;49.432;8.680;2022-10-17T00:13:02;17.70;99.90
10417;DHT22;62605;49.432;8.680;2022-10-17T00:15:29;17.70;99.90
10417;DHT22;62605;49.432;8.680;2022-10-17T00:17:56;17.60;99.90
10417;DHT22;62605;49.432;8.680;2022-10-17T00:20:25;17.50;99.90
10417;DHT22;62605;49.432;8.680;2022-10-17T00:22:52;17.50;99.90
10417;DHT22;62605;49.432;8.680;2022-10-17T00:25:19;17.50;99.90
10417;DHT22;62605;49.432;8.680;2022-10-17T00:27:46;17.50;99.90
10417;DHT22;62605;49.432;8.680;2022-10-17T00:30:14;17.50;99.90
10417;DHT22;62605;49.432;8.680;2022-10-17T00:32:42;17.50;99.90
10417;DHT22;62605;49.432;8.680;2022-10-17T00:35:09;17.50;99.90
10417;DHT22;62605;49.432;8.680;2022-10-17T00:37:38;17.50;99.90
10417;DHT22;62605;49.432;8.680;2022-10-17T00:40:06;17.50;99.90
10417;DHT22;62605;49.432;8.680;2022-10-17T00:42:33;17.50;99.90
10417;DHT22;62605;49.432;8.680;2022-10-17T00:45:13;17.50;99.90
10417;DHT22;62605;49.432;8.680;2022-10-17T00:47:41;17.60;99.90
10417;DHT22;62605;49.432;8.680;2022-10-17T00:50:08;17.60;99.90
10417;DHT22;62605;49.432;8.680;2022-10-17T00:52:38;17.50;99.90
10417;DHT22;62605;49.432;8.680;2022-10-17T00:55:09;17.50;99.90
10417;DHT22;62605;49.432;8.680;2022-10-17T00:57:38;17.50;99.90
10417;DHT22;62605;49.432;8.680;2022-10-17T01:00:08;17.40;99.90
10417;DHT22;62605;49.432;8.680;2022-10-17T01:02:37;17.40;99.90
10417;DHT22;62605;49.432;8.680;2022-10-17T01:05:05;17.30;99.90
10417;DHT22;62605;49.432;8.680;2022-10-17T01:07:33;17.30;99.90
10417;DHT22;62605;49.432;8.680;2022-10-17T01:10:02;17.20;99.90
10417;DHT22;62605;49.432;8.680;2022-10-17T01:15:32;17.30;99.90
10417;DHT22;62605;49.432;8.680;2022-10-17T01:18:11;17.30;99.90
10417;DHT22;62605;49.432;8.680;2022-10-17T01:21:02;17.20;99.90
10417;DHT22;62605;49.432;8.680;2022-10-17T01:23:48;17.20;99.90
10417;DHT22;62605;49.432;8.680;2022-10-17T01:26:25;17.10;99.90
10417;DHT22;62605;49.432;8.680;2022-10-17T01:29:15;17.10;99.90
10417;DHT22;62605;49.432;8.680;2022-10-17T01:31:53;17.10;99.90
10417;DHT22;62605;49.432;8.680;2022-10-17T01:34:26;17.00;99.90
10417;DHT22;62605;49.432;8.680;2022-10-17T01:37:01;17.00;99.90
10417;DHT22;62605;49.432;8.680;2022-10-17T01:39:38;17.10;99.90
10417;DHT22;62605;49.432;8.680;2022-10-17T01:42:13;17.10;99.90
10417;DHT22;62605;49.432;8.680;2022-10-17T01:44:45;17.00;99.90
10417;DHT22;62605;49.432;8.680;2022-10-17T01:47:18;17.10;99.90
10417;DHT22;62605;49.432;8.680;2022-10-17T01:49:48;17.00;99.90
10417;DHT22;62605;49.432;8.680;2022-10-17T01:52:19;17.10;99.90
10417;DHT22;62605;49.432;8.680;2022-10-17T01:54:51;17.00;99.90
10417;DHT22;62605;49.432;8.680;2022-10-17T01:57:25;17.10;99.90
10417;DHT22;62605;49.432;8.680;2022-10-17T01:59:55;17.10;99.90
10417;DHT22;62605;49.432;8.680;2022-10-17T02:02:25;17.10;99.90
10417;DHT22;62605;49.432;8.680;2022-10-17T02:04:54;17.20;99.90
10417;DHT22;62605;49.432;8.680;2022-10-17T02:07:22;17.10;99.90
10417;DHT22;62605;49.432;8.680;2022-10-17T02:09:49;17.10;99.90
10417;DHT22;62605;49.432;8.680;2022-10-17T02:12:34;17.10;99.90
10417;DHT22;62605;49.432;8.680;2022-10-17T02:18:06;17.10;99.90
10417;DHT22;62605;49.432;8.680;2022-10-17T02:20:48;17.00;99.90
10417;DHT22;62605;49.432;8.680;2022-10-17T02:23:22;17.00;99.90
10417;DHT22;62605;49.432;8.680;2022-10-17T02:25:58;17.00;99.90
10417;DHT22;62605;49.432;8.680;2022-10-17T02:28:32;16.90;99.90
10417;DHT22;62605;49.432;8.680;2022-10-17T02:31:05;16.90;99.90
10417;DHT22;62605;49.432;8.680;2022-10-17T02:33:41;17.00;99.90
10417;DHT22;62605;49.432;8.680;2022-10-17T02:36:12;16.90;99.90
10417;DHT22;62605;49.432;8.680;2022-10-17T02:38:41;16.80;99.90
10417;DHT22;62605;49.432;8.680;2022-10-17T02:41:11;17.00;99.90
10417;DHT22;62605;49.432;8.680;2022-10-17T02:43:39;17.00;99.90
10417;DHT22;62605;49.432;8.680;2022-10-17T02:46:09;17.00;99.90
10417;DHT22;62605;49.432;8.680;2022-10-17T02:48:41;16.90;99.90
10417;DHT22;62605;49.432;8.680;2022-10-17T02:51:15;16.80;99.90
10417;DHT22;62605;49.432;8.680;2022-10-17T02:53:50;16.90;99.90
10417;DHT22;62605;49.432;8.680;2022-10-17T02:56:20;16.90;99.90
10417;DHT22;62605;49.432;8.680;2022-10-17T02:58:49;16.80;99.90
10417;DHT22;62605;49.432;8.680;2022-10-17T03:01:17;16.80;99.90
10417;DHT22;62605;49.432;8.680;2022-10-17T03:03:46;16.70;99.90
10417;DHT22;62605;49.432;8.680;2022-10-17T03:06:12;16.70;99.90
10417;DHT22;62605;49.432;8.680;2022-10-17T03:08:39;16.70;99.90
10417;DHT22;62605;49.432;8.680;2022-10-17T03:11:06;16.70;99.90
10417;DHT22;62605;49.432;8.680;2022-10-17T03:13:33;16.70;99.90
10417;DHT22;62605;49.432;8.680;2022-10-17T03:16:00;16.80;99.90
10417;DHT22;62605;49.432;8.680;2022-10-17T03:18:27;16.80;99.90
10417;DHT22;62605;49.432;8.680;2022-10-17T03:20:55;16.80;99.90
10417;DHT22;62605;49.432;8.680;2022-10-17T03:23:23;16.80;99.90
10417;DHT22;62605;49.432;8.680;2022-10-17T03:25:50;16.80;99.90
10417;DHT22;62605;49.432;8.680;2022-10-17T03:28:17;16.80;99.90
10417;DHT22;62605;49.432;8.680;2022-10-17T03:30:44;16.90;99.90
10417;DHT22;62605;49.432;8.680;2022-10-17T03:33:11;16.90;99.90
10417;DHT22;62605;49.432;8.680;2022-10-17T03:35:39;16.90;99.90
10417;DHT22;62605;49.432;8.680;2022-10-17T03:38:07;17.10;99.90
10417;DHT22;62605;49.432;8.680;2022-10-17T03:40:34;16.90;99.90
10417;DHT22;62605;49.432;8.680;2022-10-17T03:43:01;16.90;99.90
10417;DHT22;62605;49.432;8.680;2022-10-17T03:45:28;16.80;99.90
10417;DHT22;62605;49.432;8.680;2022-10-17T03:47:55;16.90;99.90
10417;DHT22;62605;49.432;8.680;2022-10-17T03:50:22;16.90;99.90
10417;DHT22;62605;49.432;8.680;2022-10-17T03:52:49;16.90;99.90
10417;DHT22;62605;49.432;8.680;2022-10-17T03:55:17;17.10;99.90
10417;DHT22;62605;49.432;8.680;2022-10-17T03:57:44;17.20;99.90
10417;DHT22;62605;49.432;8.680;2022-10-17T04:00:12;17.20;99.90
10417;DHT22;62605;49.432;8.680;2022-10-17T04:02:39;17.10;99.90
10417;DHT22;62605;49.432;8.680;2022-10-17T04:05:07;17.10;99.90
10417;DHT22;62605;49.432;8.680;2022-10-17T04:07:35;17.00;99.90
10417;DHT22;62605;49.432;8.680;2022-10-17T04:10:03;17.00;99.90
10417;DHT22;62605;49.432;8.680;2022-10-17T04:12:31;16.90;99.90
10417;DHT22;62605;49.432;8.680;2022-10-17T04:14:58;16.80;99.90
10417;DHT22;62605;49.432;8.680;2022-10-17T04:17:25;16.70;99.90
10417;DHT22;62605;49.432;8.680;2022-10-17T04:19:52;16.60;99.90
10417;DHT22;62605;49.432;8.680;2022-10-17T04:22:19;16.60;99.90
10417;DHT22;62605;49.432;8.680;2022-10-17T04:24:46;16.50;99.90
10417;DHT22;62605;49.432;8.680;2022-10-17T04:27:13;16.30;99.90
10417;DHT22;62605;49.432;8.680;2022-10-17T04:29:41;16.20;99.90
10417;DHT22;62605;49.432;8.680;2022-10-17T04:32:09;16.20;99.90
10417;DHT22;62605;49.432;8.680;2022-10-17T04:34:36;16.10;99.90
10417;DHT22;62605;49.432;8.680;2022-10-17T04:37:03;15.90;99.90
10417;DHT22;62605;49.432;8.680;2022-10-17T04:39:30;15.70;99.90
10417;DHT22;62605;49.432;8.680;2022-10-17T04:41:57;15.60;99.90
10417;DHT22;62605;49.432;8.680;2022-10-17T04:44:24;15.50;99.90
10417;DHT22;62605;49.432;8.680;2022-10-17T04:46:56;15.60;99.90
10417;DHT22;62605;49.432;8.680;2022-10-17T04:49:23;15.70;99.90
10417;DHT22;62605;49.432;8.680;2022-10-17T04:51:50;15.90;99.90
10417;DHT22;62605;49.432;8.680;2022-10-17T04:54:18;16.10;99.90
10417;DHT22;62605;49.432;8.680;2022-10-17T04:56:45;16.30;99.90
10417;DHT22;62605;49.432;8.680;2022-10-17T04:59:13;16.30;99.90
10417;DHT22;62605;49.432;8.680;2022-10-17T05:01:40;16.40;99.90
10417;DHT22;62605;49.432;8.680;2022-10-17T05:04:08;16.30;99.90
10417;DHT22;62605;49.432;8.680;2022-10-17T05:06:36;16.50;99.90
10417;DHT22;62605;49.432;8.680;2022-10-17T05:09:03;16.30;99.90
10417;DHT22;62605;49.432;8.680;2022-10-17T05:11:31;16.10;99.90
10417;DHT22;62605;49.432;8.680;2022-10-17T05:14:01;15.60;99.90
10417;DHT22;62605;49.432;8.680;2022-10-17T05:16:28;15.50;99.90
10417;DHT22;62605;49.432;8.680;2022-10-17T05:18:57;15.20;99.90
10417;DHT22;62605;49.432;8.680;2022-10-17T05:21:26;15.10;99.90
10417;DHT22;62605;49.432;8.680;2022-10-17T05:23:55;15.10;99.90
10417;DHT22;62605;49.432;8.680;2022-10-17T05:26:22;15.10;99.90
10417;DHT22;62605;49.432;8.680;2022-10-17T05:28:50;15.40;99.90
10417;DHT22;62605;49.432;8.680;2022-10-17T05:31:19;15.60;99.90
10417;DHT22;62605;49.432;8.680;2022-10-17T05:33:46;15.70;99.90
10417;DHT22;62605;49.432;8.680;2022-10-17T05:36:14;16.10;99.90
10417;DHT22;62605;49.432;8.680;2022-10-17T05:38:42;16.40;99.90
10417;DHT22;62605;49.432;8.680;2022-10-17T05:41:09;16.60;99.90
10417;DHT22;62605;49.432;8.680;2022-10-17T05:43:36;16.70;99.90
10417;DHT22;62605;49.432;8.680;2022-10-17T05:46:04;16.70;99.90
10417;DHT22;62605;49.432;8.680;2022-10-17T05:48:32;17.10;99.90
10417;DHT22;62605;49.432;8.680;2022-10-17T05:51:00;17.10;99.90
10417;DHT22;62605;49.432;8.680;2022-10-17T05:53:29;17.10;99.90
10417;DHT22;62605;49.432;8.680;2022-10-17T05:55:59;17.20;99.90
10417;DHT22;62605;49.432;8.680;2022-10-17T05:58:27;17.30;99.90
10417;DHT22;62605;49.432;8.680;2022-10-17T06:00:57;17.40;99.90
10417;DHT22;62605;49.432;8.680;2022-10-17T06:03:24;17.50;99.90
10417;DHT22;62605;49.432;8.680;2022-10-17T06:05:52;17.60;99.90
10417;DHT22;62605;49.432;8.680;2022-10-17T06:08:19;17.60;99.90
10417;DHT22;62605;49.432;8.680;2022-10-17T06:10:47;17.60;99.90
10417;DHT22;62605;49.432;8.680;2022-10-17T06:13:16;17.70;99.90
10417;DHT22;62605;49.432;8.680;2022-10-17T06:15:43;17.70;99.90
10417;DHT22;62605;49.432;8.680;2022-10-17T06:18:10;17.70;99.90
10417;DHT22;62605;49.432;8.680;2022-10-17T06:20:37;17.70;99.90
10417;DHT22;62605;49.432;8.680;2022-10-17T06:23:04;17.60;99.90
10417;DHT22;62605;49.432;8.680;2022-10-17T06:25:32;17.60;99.90
10417;DHT22;62605;49.432;8.680;2022-10-17T06:27:59;17.60;99.90
10417;DHT22;62605;49.432;8.680;2022-10-17T06:30:27;17.50;99.90
10417;DHT22;62605;49.432;8.680;2022-10-17T06:32:55;17.60;99.90
10417;DHT22;62605;49.432;8.680;2022-10-17T06:35:23;17.60;99.90
10417;DHT22;62605;49.432;8.680;2022-10-17T06:37:50;17.60;99.90
10417;DHT22;62605;49.432;8.680;2022-10-17T06:40:17;17.60;99.90
10417;DHT22;62605;49.432;8.680;2022-10-17T06:42:44;17.60;99.90
10417;DHT22;62605;49.432;8.680;2022-10-17T06:45:12;17.60;99.90
10417;DHT22;62605;49.432;8.680;2022-10-17T06:47:41;17.70;99.90
10417;DHT22;62605;49.432;8.680;2022-10-17T06:50:09;17.80;99.90
10417;DHT22;62605;49.432;8.680;2022-10-17T06:52:35;18.00;99.90
10417;DHT22;62605;49.432;8.680;2022-10-17T06:55:05;18.00;99.90
10417;DHT22;62605;49.432;8.680;2022-10-17T06:57:32;18.20;99.90
10417;DHT22;62605;49.432;8.680;2022-10-17T06:59:59;18.30;99.90
10417;DHT22;62605;49.432;8.680;2022-10-17T07:02:26;18.30;99.90
10417;DHT22;62605;49.432;8.680;2022-10-17T07:04:57;18.30;99.90
10417;DHT22;62605;49.432;8.680;2022-10-17T07:07:24;18.30;99.90
10417;DHT22;62605;49.432;8.680;2022-10-17T07:09:51;18.30;99.90
10417;DHT22;62605;49.432;8.680;2022-10-17T07:12:18;18.30;99.90
10417;DHT22;62605;49.432;8.680;2022-10-17T07:14:45;18.30;99.90
10417;DHT22;62605;49.432;8.680;2022-10-17T07:17:15;18.30;99.90
10417;DHT22;62605;49.432;8.680;2022-10-17T07:19:42;18.30;99.90
10417;DHT22;62605;49.432;8.680;2022-10-17T07:22:10;18.10;99.90
10417;DHT22;62605;49.432;8.680;2022-10-17T07:24:38;17.60;99.90
10417;DHT22;62605;49.432;8.680;2022-10-17T07:27:05;17.30;99.90
10417;DHT22;62605;49.432;8.680;2022-10-17T07:29:32;17.00;99.90
10417;DHT22;62605;49.432;8.680;2022-10-17T07:31:59;16.90;99.90
10417;DHT22;62605;49.432;8.680;2022-10-17T07:34:28;16.70;99.90
10417;DHT22;62605;49.432;8.680;2022-10-17T07:36:56;16.60;99.90
10417;DHT22;62605;49.432;8.680;2022-10-17T07:39:24;16.50;99.90
10417;DHT22;62605;49.432;8.680;2022-10-17T07:41:51;16.40;99.90
10417;DHT22;62605;49.432;8.680;2022-10-17T07:44:19;16.40;99.90
10417;DHT22;62605;49.432;8.680;2022-10-17T07:46:46;16.40;99.90
10417;DHT22;62605;49.432;8.680;2022-10-17T07:49:13;16.40;99.90
10417;DHT22;62605;49.432;8.680;2022-10-17T07:51:40;16.40;99.90
10417;DHT22;62605;49.432;8.680;2022-10-17T07:54:07;16.40;99.90
10417;DHT22;62605;49.432;8.680;2022-10-17T07:56:36;16.50;99.90
10417;DHT22;62605;49.432;8.680;2022-10-17T07:59:03;16.70;99.90
10417;DHT22;62605;49.432;8.680;2022-10-17T08:01:30;16.70;99.90
10417;DHT22;62605;49.432;8.680;2022-10-17T08:03:57;16.90;99.90
10417;DHT22;62605;49.432;8.680;2022-10-17T08:06:24;17.10;99.90
10417;DHT22;62605;49.432;8.680;2022-10-17T08:08:51;17.00;99.90
10417;DHT22;62605;49.432;8.680;2022-10-17T08:11:18;17.10;99.90
10417;DHT22;62605;49.432;8.680;2022-10-17T08:13:47;17.10;99.90
10417;DHT22;62605;49.432;8.680;2022-10-17T08:16:14;17.20;99.90
10417;DHT22;62605;49.432;8.680;2022-10-17T08:18:42;17.40;99.90
10417;DHT22;62605;49.432;8.680;2022-10-17T08:21:10;17.40;99.90
10417;DHT22;62605;49.432;8.680;2022-10-17T08:23:38;17.50;99.90
10417;DHT22;62605;49.432;8.680;2022-10-17T08:26:06;17.60;99.90
10417;DHT22;62605;49.432;8.680;2022-10-17T08:28:36;17.60;99.90
10417;DHT22;62605;49.432;8.680;2022-10-17T08:31:06;17.70;99.90
10417;DHT22;62605;49.432;8.680;2022-10-17T08:33:34;18.00;99.90
10417;DHT22;62605;49.432;8.680;2022-10-17T08:36:02;18.10;99.90
10417;DHT22;62605;49.432;8.680;2022-10-17T08:38:30;18.30;99.90
10417;DHT22;62605;49.432;8.680;2022-10-17T08:41:01;18.50;99.90
10417;DHT22;62605;49.432;8.680;2022-10-17T08:43:45;18.70;99.90
10417;DHT22;62605;49.432;8.680;2022-10-17T09:19:14;20.50;99.90
10417;DHT22;62605;49.432;8.680;2022-10-17T09:21:45;20.50;99.90
10417;DHT22;62605;49.432;8.680;2022-10-17T09:24:17;20.40;99.90
10417;DHT22;62605;49.432;8.680;2022-10-17T09:26:45;20.50;99.90
10417;DHT22;62605;49.432;8.680;2022-10-17T09:29:19;20.50;99.90
10417;DHT22;62605;49.432;8.680;2022-10-17T09:31:52;20.50;99.90
10417;DHT22;62605;49.432;8.680;2022-10-17T09:34:22;20.40;99.90
10417;DHT22;62605;49.432;8.680;2022-10-17T09:36:51;20.40;99.90
10417;DHT22;62605;49.432;8.680;2022-10-17T09:39:21;20.30;99.90
10417;DHT22;62605;49.432;8.680;2022-10-17T09:41:52;20.40;99.90
10417;DHT22;62605;49.432;8.680;2022-10-17T09:44:23;20.40;99.90
10417;DHT22;62605;49.432;8.680;2022-10-17T09:47:01;20.50;99.90
10417;DHT22;62605;49.432;8.680;2022-10-17T09:49:34;20.50;99.90
10417;DHT22;62605;49.432;8.680;2022-10-17T09:52:04;20.60;99.90
10417;DHT22;62605;49.432;8.680;2022-10-17T09:54:39;20.60;99.90
10417;DHT22;62605;49.432;8.680;2022-10-17T09:57:09;20.70;99.90
10417;DHT22;62605;49.432;8.680;2022-10-17T09:59:38;20.70;99.90
10417;DHT22;62605;49.432;8.680;2022-10-17T10:02:16;20.60;99.90
10417;DHT22;62605;49.432;8.680;2022-10-17T10:04:59;20.70;99.90
10417;DHT22;62605;49.432;8.680;2022-10-17T10:07:28;20.70;99.90
10417;DHT22;62605;49.432;8.680;2022-10-17T10:09:57;20.80;99.90
10417;DHT22;62605;49.432;8.680;2022-10-17T10:12:25;20.80;99.90
10417;DHT22;62605;49.432;8.680;2022-10-17T10:14:53;20.90;99.90
10417;DHT22;62605;49.432;8.680;2022-10-17T10:17:33;20.90;99.90
10417;DHT22;62605;49.432;8.680;2022-10-17T10:20:27;20.90;99.90
10417;DHT22;62605;49.432;8.680;2022-10-17T10:23:13;20.90;99.90
10417;DHT22;62605;49.432;8.680;2022-10-17T10:25:53;20.80;99.90
10417;DHT22;62605;49.432;8.680;2022-10-17T10:28:24;20.80;99.90
10417;DHT22;62605;49.432;8.680;2022-10-17T10:30:53;20.80;99.90
10417;DHT22;62605;49.432;8.680;2022-10-17T10:33:22;20.90;99.90
10417;DHT22;62605;49.432;8.680;2022-10-17T10:35:55;20.90;99.90
10417;DHT22;62605;49.432;8.680;2022-10-17T10:38:23;21.00;99.90
10417;DHT22;62605;49.432;8.680;2022-10-17T10:40:52;21.00;99.90
10417;DHT22;62605;49.432;8.680;2022-10-17T10:43:23;21.00;99.90
10417;DHT22;62605;49.432;8.680;2022-10-17T10:45:52;21.00;99.90
10417;DHT22;62605;49.432;8.680;2022-10-17T10:48:21;21.10;99.90
10417;DHT22;62605;49.432;8.680;2022-10-17T10:50:50;21.10;99.90
10417;DHT22;62605;49.432;8.680;2022-10-17T10:53:31;21.10;99.90
10417;DHT22;62605;49.432;8.680;2022-10-17T10:56:03;21.10;99.90
10417;DHT22;62605;49.432;8.680;2022-10-17T10:58:38;21.20;99.90
10417;DHT22;62605;49.432;8.680;2022-10-17T11:01:16;21.20;99.90
10417;DHT22;62605;49.432;8.680;2022-10-17T11:04:02;21.30;99.90
10417;DHT22;62605;49.432;8.680;2022-10-17T11:06:35;21.40;99.90
10417;DHT22;62605;49.432;8.680;2022-10-17T11:09:16;21.50;99.90
10417;DHT22;62605;49.432;8.680;2022-10-17T11:11:49;21.50;99.90
10417;DHT22;62605;49.432;8.680;2022-10-17T11:14:22;21.50;99.90
10417;DHT22;62605;49.432;8.680;2022-10-17T11:16:56;21.50;99.90
10417;DHT22;62605;49.432;8.680;2022-10-17T11:19:32;21.60;99.90
10417;DHT22;62605;49.432;8.680;2022-10-17T11:22:20;21.60;99.90
10417;DHT22;62605;49.432;8.680;2022-10-17T11:24:53;21.50;99.90
10417;DHT22;62605;49.432;8.680;2022-10-17T11:27:25;21.50;99.90
10417;DHT22;62605;49.432;8.680;2022-10-17T11:29:55;21.50;99.90
10417;DHT22;62605;49.432;8.680;2022-10-17T11:32:27;21.50;99.90
10417;DHT22;62605;49.432;8.680;2022-10-17T11:35:03;21.60;99.90
10417;DHT22;62605;49.432;8.680;2022-10-17T11:37:35;21.60;99.90
10417;DHT22;62605;49.432;8.680;2022-10-17T11:40:15;21.60;99.90
10417;DHT22;62605;49.432;8.680;2022-10-17T11:42:49;21.60;99.90
10417;DHT22;62605;49.432;8.680;2022-10-17T11:45:20;21.70;99.90
10417;DHT22;62605;49.432;8.680;2022-10-17T11:47:50;21.80;99.90
10417;DHT22;62605;49.432;8.680;2022-10-17T11:50:22;21.90;99.90
10417;DHT22;62605;49.432;8.680;2022-10-17T11:52:53;22.10;99.90
10417;DHT22;62605;49.432;8.680;2022-10-17T11:55:24;22.10;99.90
10417;DHT22;62605;49.432;8.680;2022-10-17T11:58:05;22.20;99.90
10417;DHT22;62605;49.432;8.680;2022-10-17T12:00:47;22.20;99.90
10417;DHT22;62605;49.432;8.680;2022-10-17T12:03:38;22.20;99.90
10417;DHT22;62605;49.432;8.680;2022-10-17T12:06:14;22.30;99.90
10417;DHT22;62605;49.432;8.680;2022-10-17T12:08:50;22.50;99.90
10417;DHT22;62605;49.432;8.680;2022-10-17T12:11:28;22.50;99.90
10417;DHT22;62605;49.432;8.680;2022-10-17T12:13:59;22.50;99.90
10417;DHT22;62605;49.432;8.680;2022-10-17T12:16:43;22.60;99.90
10417;DHT22;62605;49.432;8.680;2022-10-17T12:19:22;22.60;99.90
10417;DHT22;62605;49.432;8.680;2022-10-17T12:21:57;22.50;99.90
10417;DHT22;62605;49.432;8.680;2022-10-17T12:24:38;22.60;99.90
10417;DHT22;62605;49.432;8.680;2022-10-17T12:27:34;22.70;99.90
10417;DHT22;62605;49.432;8.680;2022-10-17T12:30:05;22.70;99.90
10417;DHT22;62605;49.432;8.680;2022-10-17T12:32:32;22.70;99.90
10417;DHT22;62605;49.432;8.680;2022-10-17T12:35:00;22.90;99.90
10417;DHT22;62605;49.432;8.680;2022-10-17T12:38:02;22.90;99.90
10417;DHT22;62605;49.432;8.680;2022-10-17T12:40:49;23.10;99.90
10417;DHT22;62605;49.432;8.680;2022-10-17T12:49:22;23.40;99.90
10417;DHT22;62605;49.432;8.680;2022-10-17T12:55:00;23.40;99.90
10417;DHT22;62605;49.432;8.680;2022-10-17T12:57:36;23.40;99.90
10417;DHT22;62605;49.432;8.680;2022-10-17T13:00:13;23.40;99.90
10417;DHT22;62605;49.432;8.680;2022-10-17T13:02:41;23.30;99.90
10417;DHT22;62605;49.432;8.680;2022-10-17T13:05:14;23.30;99.90
10417;DHT22;62605;49.432;8.680;2022-10-17T13:07:43;23.20;99.90
10417;DHT22;62605;49.432;8.680;2022-10-17T13:10:19;23.30;99.90
10417;DHT22;62605;49.432;8.680;2022-10-17T13:12:47;23.40;99.90
10417;DHT22;62605;49.432;8.680;2022-10-17T13:15:16;23.40;99.90
10417;DHT22;62605;49.432;8.680;2022-10-17T13:17:44;23.30;99.90
10417;DHT22;62605;49.432;8.680;2022-10-17T13:20:20;23.40;99.90
10417;DHT22;62605;49.432;8.680;2022-10-17T13:22:49;23.30;99.90
10417;DHT22;62605;49.432;8.680;2022-10-17T13:25:18;23.20;99.90
10417;DHT22;62605;49.432;8.680;2022-10-17T13:27:47;23.30;99.90
10417;DHT22;62605;49.432;8.680;2022-10-17T13:30:25;23.30;99.90
10417;DHT22;62605;49.432;8.680;2022-10-17T13:32:52;23.40;99.90
10417;DHT22;62605;49.432;8.680;2022-10-17T13:35:27;23.30;99.90
10417;DHT22;62605;49.432;8.680;2022-10-17T13:37:55;23.30;99.90
10417;DHT22;62605;49.432;8.680;2022-10-17T13:40:24;23.20;99.90
10417;DHT22;62605;49.432;8.680;2022-10-17T13:42:54;23.30;99.90
10417;DHT22;62605;49.432;8.680;2022-10-17T13:45:27;23.30;99.90
10417;DHT22;62605;49.432;8.680;2022-10-17T13:47:55;23.30;99.90
10417;DHT22;62605;49.432;8.680;2022-10-17T13:50:30;23.20;99.90
10417;DHT22;62605;49.432;8.680;2022-10-17T13:53:19;23.20;99.90
10417;DHT22;62605;49.432;8.680;2022-10-17T13:55:51;23.10;99.90
10417;DHT22;62605;49.432;8.680;2022-10-17T13:58:18;23.20;99.90
10417;DHT22;62605;49.432;8.680;2022-10-17T14:00:46;23.20;99.90
10417;DHT22;62605;49.432;8.680;2022-10-17T14:03:13;23.20;99.90
10417;DHT22;62605;49.432;8.680;2022-10-17T14:06:10;23.10;99.90
10417;DHT22;62605;49.432;8.680;2022-10-17T14:08:45;23.20;99.90
10417;DHT22;62605;49.432;8.680;2022-10-17T14:11:16;23.20;99.90
10417;DHT22;62605;49.432;8.680;2022-10-17T14:13:47;23.20;99.90
10417;DHT22;62605;49.432;8.680;2022-10-17T14:16:15;23.20;99.90
10417;DHT22;62605;49.432;8.680;2022-10-17T14:18:46;23.20;99.90
10417;DHT22;62605;49.432;8.680;2022-10-17T14:21:21;23.20;99.90
10417;DHT22;62605;49.432;8.680;2022-10-17T14:23:49;23.20;99.90
10417;DHT22;62605;49.432;8.680;2022-10-17T14:26:18;23.20;99.90
10417;DHT22;62605;49.432;8.680;2022-10-17T14:28:48;23.20;99.90
10417;DHT22;62605;49.432;8.680;2022-10-17T14:31:28;23.20;99.90
10417;DHT22;62605;49.432;8.680;2022-10-17T14:33:56;23.00;99.90
10417;DHT22;62605;49.432;8.680;2022-10-17T14:36:47;23.00;99.90
10417;DHT22;62605;49.432;8.680;2022-10-17T14:39:19;23.00;99.90
10417;DHT22;62605;49.432;8.680;2022-10-17T14:41:47;23.00;99.90
10417;DHT22;62605;49.432;8.680;2022-10-17T14:44:19;23.00;99.90
10417;DHT22;62605;49.432;8.680;2022-10-17T14:46:51;22.90;99.90
10417;DHT22;62605;49.432;8.680;2022-10-17T14:49:22;22.80;99.90
10417;DHT22;62605;49.432;8.680;2022-10-17T14:52:27;22.70;99.90
10417;DHT22;62605;49.432;8.680;2022-10-17T14:55:12;22.70;99.90
10417;DHT22;62605;49.432;8.680;2022-10-17T14:57:43;22.70;99.90
10417;DHT22;62605;49.432;8.680;2022-10-17T15:00:13;22.70;99.90
10417;DHT22;62605;49.432;8.680;2022-10-17T15:02:42;22.70;99.90
10417;DHT22;62605;49.432;8.680;2022-10-17T15:05:09;22.70;99.90
10417;DHT22;62605;49.432;8.680;2022-10-17T15:07:37;22.60;99.90
10417;DHT22;62605;49.432;8.680;2022-10-17T15:10:05;22.70;99.90
10417;DHT22;62605;49.432;8.680;2022-10-17T15:12:33;22.70;99.90
10417;DHT22;62605;49.432;8.680;2022-10-17T15:15:01;22.60;99.90
10417;DHT22;62605;49.432;8.680;2022-10-17T15:17:29;22.50;99.90
10417;DHT22;62605;49.432;8.680;2022-10-17T15:19:58;22.50;99.90
10417;DHT22;62605;49.432;8.680;2022-10-17T15:22:26;22.30;99.90
10417;DHT22;62605;49.432;8.680;2022-10-17T15:24:55;22.20;99.90
10417;DHT22;62605;49.432;8.680;2022-10-17T15:27:23;22.00;99.90
10417;DHT22;62605;49.432;8.680;2022-10-17T15:29:51;21.80;99.90
10417;DHT22;62605;49.432;8.680;2022-10-17T15:32:18;21.70;99.90
10417;DHT22;62605;49.432;8.680;2022-10-17T15:34:45;21.70;99.90
10417;DHT22;62605;49.432;8.680;2022-10-17T15:37:16;21.70;99.90
10417;DHT22;62605;49.432;8.680;2022-10-17T15:39:48;21.60;99.90
10417;DHT22;62605;49.432;8.680;2022-10-17T15:42:20;21.80;99.90
10417;DHT22;62605;49.432;8.680;2022-10-17T15:44:48;21.70;99.90
10417;DHT22;62605;49.432;8.680;2022-10-17T15:47:21;21.70;99.90
10417;DHT22;62605;49.432;8.680;2022-10-17T15:49:50;21.70;99.90
10417;DHT22;62605;49.432;8.680;2022-10-17T15:52:17;21.80;99.90
10417;DHT22;62605;49.432;8.680;2022-10-17T15:54:44;21.80;99.90
10417;DHT22;62605;49.432;8.680;2022-10-17T15:57:15;21.80;99.90
10417;DHT22;62605;49.432;8.680;2022-10-17T15:59:45;21.80;99.90
10417;DHT22;62605;49.432;8.680;2022-10-17T16:02:14;21.60;99.90
10417;DHT22;62605;49.432;8.680;2022-10-17T16:04:41;21.60;99.90
10417;DHT22;62605;49.432;8.680;2022-10-17T16:07:09;21.40;99.90
10417;DHT22;62605;49.432;8.680;2022-10-17T16:09:36;21.30;99.90
10417;DHT22;62605;49.432;8.680;2022-10-17T16:12:08;21.10;99.90
10417;DHT22;62605;49.432;8.680;2022-10-17T16:14:36;21.00;99.90
10417;DHT22;62605;49.432;8.680;2022-10-17T16:17:05;20.80;99.90
10417;DHT22;62605;49.432;8.680;2022-10-17T16:19:32;20.60;99.90
10417;DHT22;62605;49.432;8.680;2022-10-17T16:22:00;20.60;99.90
10417;DHT22;62605;49.432;8.680;2022-10-17T16:24:29;20.40;99.90
10417;DHT22;62605;49.432;8.680;2022-10-17T16:26:56;20.30;99.90
10417;DHT22;62605;49.432;8.680;2022-10-17T16:29:23;20.30;99.90
10417;DHT22;62605;49.432;8.680;2022-10-17T16:31:51;20.10;99.90
10417;DHT22;62605;49.432;8.680;2022-10-17T16:34:23;20.10;99.90
10417;DHT22;62605;49.432;8.680;2022-10-17T16:36:55;20.10;99.90
10417;DHT22;62605;49.432;8.680;2022-10-17T16:39:22;20.00;99.90